Zim Asia — A8OZ2 — position and weather

sailwx.info

Track history (hours):
 
Tides and Currents Weather Stations Pressure Air Temp Water Temp Dewpoint Dewpoint Depression Visibility Wind Speed Wind Dir Waves Ship Positions

Zim Asia

Last reported at 2015-Jun-06 11:24 UTC. Time now 2018-Nov-17 23:16 UTC.
Position N 01°55' E 102°21'.
Warning: this ship's position is years out of date!

Length 254 m; draft 10.6 m.

Type: Ship. MMSI: 636016516.

Date/timePositionNaut miles runAvg speedWind from/ knotsBaromVisibWave heightAir tempDewpointWater temp
2015-Jun-06 11:24N 01°55' E 102°21'1112.9
2015-Jun-06 10:31N 01°50' E 102°31'9011.2
2015-Jun-06 02:31N 01°12' E 103°53'1211.5
2015-Jun-06 01:29N 01°15' E 104°04'  
2015-May-28 14:27N 22°17' E 114°06'1310.1
2015-May-28 13:11N 22°23' E 113°54'6 0.5
2015-May-28 00:05N 22°29' E 113°52'5 9.6
2015-May-27 23:33N 22°24' E 113°54'11 9.5
2015-May-27 22:22N 22°20' E 114°05'16 8.3
2015-May-27 20:27N 22°09' E 114°18'1412.3
2015-May-27 19:21N 22°10' E 114°32'  
Track history (hours):
 
Tides and Currents Weather Stations Pressure Air Temp Water Temp Dewpoint Dewpoint Depression Visibility Wind Speed Wind Dir Waves Ship Positions

Zim Asia

Last reported at 2015-Jun-06 11:24 UTC. Time now 2018-Nov-17 23:16 UTC.
Position N 01°55' E 102°21'.
Warning: this ship's position is years out of date!

Length 254 m; draft 10.6 m.

Type: Ship. MMSI: 636016516.

Date/timePositionNaut miles runAvg speedWind from/ knotsBaromVisibWave heightAir tempDewpointWater temp
2015-Jun-06 11:24N 01°55' E 102°21'1112.9
2015-Jun-06 10:31N 01°50' E 102°31'9011.2
2015-Jun-06 02:31N 01°12' E 103°53'1211.5
2015-Jun-06 01:29N 01°15' E 104°04'  
2015-May-28 14:27N 22°17' E 114°06'1310.1
2015-May-28 13:11N 22°23' E 113°54'6 0.5
2015-May-28 00:05N 22°29' E 113°52'5 9.6
2015-May-27 23:33N 22°24' E 113°54'11 9.5
2015-May-27 22:22N 22°20' E 114°05'16 8.3
2015-May-27 20:27N 22°09' E 114°18'1412.3
2015-May-27 19:21N 22°10' E 114°32'  

Dump ship's entire track history